createdAt,value
2023-02-12T00:00:33.063Z,9.681920
2023-02-12T00:01:33.049Z,9.681920
2023-02-12T00:02:33.104Z,9.681920
2023-02-12T00:03:33.075Z,9.681732
2023-02-12T00:04:33.056Z,9.681347
2023-02-12T00:05:33.061Z,9.681222
2023-02-12T00:06:33.050Z,9.681060
2023-02-12T00:07:33.025Z,9.681293
2023-02-12T00:08:33.017Z,9.681343
2023-02-12T00:09:33.028Z,9.681414
2023-02-12T00:10:33.003Z,9.681414
2023-02-12T00:11:33.008Z,9.681414
2023-02-12T00:12:32.998Z,9.681414
2023-02-12T00:13:32.974Z,9.680833
2023-02-12T00:14:32.999Z,9.680807
2023-02-12T00:15:33.024Z,9.680807
2023-02-12T00:16:32.982Z,9.680807
2023-02-12T00:17:33.007Z,9.680807
2023-02-12T00:18:32.977Z,9.680807
2023-02-12T00:19:32.947Z,9.680807
2023-02-12T00:20:32.976Z,9.680807
2023-02-12T00:21:32.965Z,9.680807
2023-02-12T00:22:32.940Z,9.680807
2023-02-12T00:23:32.941Z,9.680807
2023-02-12T00:24:32.936Z,9.680807
2023-02-12T00:25:32.910Z,9.680807
2023-02-12T00:26:32.931Z,9.680807
2023-02-12T00:27:32.900Z,9.680807
2023-02-12T00:28:32.952Z,9.680807
2023-02-12T00:29:32.904Z,9.680807
2023-02-12T00:30:32.956Z,9.680807
2023-02-12T00:31:32.921Z,9.680807
2023-02-12T00:32:32.896Z,9.680807
2023-02-12T00:33:32.874Z,9.680807
2023-02-12T00:34:32.890Z,9.680807
2023-02-12T00:35:32.865Z,9.680807
2023-02-12T00:36:32.882Z,9.680807
2023-02-12T00:37:32.859Z,9.680807
2023-02-12T00:38:32.885Z,9.680807
2023-02-12T00:39:32.850Z,9.680807
2023-02-12T00:40:32.860Z,9.680807
2023-02-12T00:41:32.838Z,9.680807
2023-02-12T00:42:32.832Z,9.680807
2023-02-12T00:43:32.829Z,9.680807
2023-02-12T00:44:32.852Z,9.680807
2023-02-12T00:45:32.840Z,9.680807
2023-02-12T00:46:32.901Z,9.680807
2023-02-12T00:47:32.801Z,9.680807
2023-02-12T00:48:32.810Z,9.680807
2023-02-12T00:49:32.802Z,9.680807
2023-02-12T00:50:32.812Z,9.680807
2023-02-12T00:51:32.762Z,9.680807
2023-02-12T00:52:32.789Z,9.680807
2023-02-12T00:53:32.774Z,9.680807
2023-02-12T00:54:32.794Z,9.681396
2023-02-12T00:55:32.751Z,9.681463
2023-02-12T00:56:32.770Z,9.681463
2023-02-12T00:57:32.758Z,9.680841
2023-02-12T00:58:32.870Z,9.680841
2023-02-12T00:59:32.722Z,9.680907
2023-02-12T01:00:32.730Z,9.680846
2023-02-12T01:01:32.821Z,9.680846
2023-02-12T01:02:32.718Z,9.681777
2023-02-12T01:03:32.759Z,9.681777
2023-02-12T01:04:32.727Z,9.681777
2023-02-12T01:05:32.710Z,9.681475
2023-02-12T01:06:32.750Z,9.681220
2023-02-12T01:07:32.702Z,9.681220
2023-02-12T01:08:32.699Z,9.681220
2023-02-12T01:09:32.679Z,9.681220
2023-02-12T01:10:32.673Z,9.681220
2023-02-12T01:11:32.673Z,9.681220
2023-02-12T01:12:32.689Z,9.681220
2023-02-12T01:13:32.655Z,9.681220
2023-02-12T01:14:32.651Z,9.681220
2023-02-12T01:15:32.637Z,9.681220
2023-02-12T01:16:32.738Z,9.681220
2023-02-12T01:17:32.656Z,9.681220
2023-02-12T01:18:32.639Z,9.681220
2023-02-12T01:19:32.640Z,9.681220
2023-02-12T01:20:32.608Z,9.681220
2023-02-12T01:21:32.634Z,9.681220
2023-02-12T01:22:32.610Z,9.681220
2023-02-12T01:23:32.595Z,9.681220
2023-02-12T01:24:32.629Z,9.681220
2023-02-12T01:25:32.607Z,9.681220
2023-02-12T01:26:32.589Z,9.681220
2023-02-12T01:27:32.584Z,9.681220
2023-02-12T01:28:32.668Z,9.681220
2023-02-12T01:29:32.575Z,9.681220
2023-02-12T01:30:32.567Z,9.681220
2023-02-12T01:31:32.622Z,9.681220
2023-02-12T01:32:32.555Z,9.681220
2023-02-12T01:33:32.571Z,9.681220
2023-02-12T01:34:32.560Z,9.681220
2023-02-12T01:35:32.559Z,9.681220
2023-02-12T01:36:32.521Z,9.681220
2023-02-12T01:37:32.526Z,9.681220
2023-02-12T01:38:32.518Z,9.681220
2023-02-12T01:39:32.516Z,9.681220
2023-02-12T01:40:32.513Z,9.681220
2023-02-12T01:41:32.528Z,9.681220
2023-02-12T01:42:32.493Z,9.681220
2023-02-12T01:43:32.485Z,9.681220
2023-02-12T01:44:32.487Z,9.681220
2023-02-12T01:45:32.482Z,9.681220
2023-02-12T01:46:32.531Z,9.681220
2023-02-12T01:47:32.517Z,9.681220
2023-02-12T01:48:32.458Z,9.681220
2023-02-12T01:49:32.445Z,9.681220
2023-02-12T01:50:32.452Z,9.681220
2023-02-12T01:51:32.449Z,9.681220
2023-02-12T01:52:32.437Z,9.681220
2023-02-12T01:53:32.464Z,9.681220
2023-02-12T01:54:32.437Z,9.681220
2023-02-12T01:55:32.434Z,9.681220
2023-02-12T01:56:32.422Z,9.681220
2023-02-12T01:57:32.418Z,9.681220
2023-02-12T01:58:32.395Z,9.681220
2023-02-12T01:59:32.413Z,9.681220
2023-02-12T02:00:32.410Z,9.681220
2023-02-12T02:01:32.394Z,9.681220
2023-02-12T02:02:32.386Z,9.681220
2023-02-12T02:03:32.449Z,9.681220
2023-02-12T02:04:32.389Z,9.681220
2023-02-12T02:05:32.404Z,9.681220
2023-02-12T02:06:32.358Z,9.681220
2023-02-12T02:07:32.357Z,9.681220
2023-02-12T02:08:32.356Z,9.681220
2023-02-12T02:09:32.361Z,9.681220
2023-02-12T02:10:32.337Z,9.681220
2023-02-12T02:11:32.363Z,9.681220
2023-02-12T02:12:32.330Z,9.681220
2023-02-12T02:13:32.319Z,9.681220
2023-02-12T02:14:32.318Z,9.681220
2023-02-12T02:15:32.318Z,9.681220
2023-02-12T02:16:32.335Z,9.681220
2023-02-12T02:17:32.293Z,9.681220
2023-02-12T02:18:32.304Z,9.681220
2023-02-12T02:19:32.312Z,9.681220
2023-02-12T02:20:32.315Z,9.681220
2023-02-12T02:21:32.276Z,9.681220
2023-02-12T02:22:32.264Z,9.681220
2023-02-12T02:23:32.275Z,9.681220
2023-02-12T02:24:32.253Z,9.681220
2023-02-12T02:25:32.258Z,9.681220
2023-02-12T02:26:32.263Z,9.681220
2023-02-12T02:27:32.259Z,9.681220
2023-02-12T02:28:32.259Z,9.681220
2023-02-12T02:29:32.227Z,9.681220
2023-02-12T02:30:32.250Z,9.681220
2023-02-12T02:31:32.362Z,9.681220
2023-02-12T02:32:32.235Z,9.681220
2023-02-12T02:33:32.197Z,9.681220
2023-02-12T02:34:32.210Z,9.681220
2023-02-12T02:35:32.213Z,9.681220
2023-02-12T02:36:32.238Z,9.681220
2023-02-12T02:37:32.194Z,9.681220
2023-02-12T02:38:32.171Z,9.681220
2023-02-12T02:39:32.164Z,9.681220
2023-02-12T02:40:32.216Z,9.681220
2023-02-12T02:41:32.156Z,9.681220
2023-02-12T02:42:32.155Z,9.681220
2023-02-12T02:43:32.144Z,9.681220
2023-02-12T02:44:32.150Z,9.681220
2023-02-12T02:45:32.175Z,9.681220
2023-02-12T02:46:32.143Z,9.681220
2023-02-12T02:47:32.128Z,9.681220
2023-02-12T02:48:32.118Z,9.681220
2023-02-12T02:49:32.113Z,9.681220
2023-02-12T02:50:32.105Z,9.681220
2023-02-12T02:51:32.121Z,9.681220
2023-02-12T02:52:32.106Z,9.681220
2023-02-12T02:53:32.112Z,9.681220
2023-02-12T02:54:32.098Z,9.681220
2023-02-12T02:55:32.112Z,9.681220
2023-02-12T02:56:32.083Z,9.681220
2023-02-12T02:57:32.100Z,9.681220
2023-02-12T02:58:32.106Z,9.681220
2023-02-12T02:59:32.059Z,9.681220
2023-02-12T03:00:32.149Z,9.681220
2023-02-12T03:01:32.065Z,9.681220
2023-02-12T03:02:32.056Z,9.681220
2023-02-12T03:03:32.044Z,9.681220
2023-02-12T03:04:32.083Z,9.681220
2023-02-12T03:05:32.043Z,9.681220
2023-02-12T03:06:32.026Z,9.681220
2023-02-12T03:07:32.059Z,9.681220
2023-02-12T03:08:32.023Z,9.681182
2023-02-12T03:09:32.025Z,9.681396
2023-02-12T03:10:32.001Z,9.681322
2023-02-12T03:11:32.019Z,9.681322
2023-02-12T03:12:31.992Z,9.681987
2023-02-12T03:13:31.974Z,9.681383
2023-02-12T03:14:31.978Z,9.681490
2023-02-12T03:15:32.015Z,9.681490
2023-02-12T03:16:32.075Z,9.681781
2023-02-12T03:17:31.955Z,9.681916
2023-02-12T03:18:31.991Z,9.681583
2023-02-12T03:19:31.968Z,9.681882
2023-02-12T03:20:31.945Z,9.681882
2023-02-12T03:21:31.951Z,9.681592
2023-02-12T03:22:31.957Z,9.680633
2023-02-12T03:23:31.958Z,9.681031
2023-02-12T03:24:31.932Z,9.680895
2023-02-12T03:25:31.916Z,9.681224
2023-02-12T03:26:31.945Z,9.681211
2023-02-12T03:27:31.914Z,9.680737
2023-02-12T03:28:31.948Z,9.679689
2023-02-12T03:29:31.897Z,9.680962
2023-02-12T03:30:31.924Z,9.682000
2023-02-12T03:31:31.963Z,9.681616
2023-02-12T03:32:31.913Z,9.681422
2023-02-12T03:33:31.877Z,9.681567
2023-02-12T03:34:31.874Z,9.681685
2023-02-12T03:35:31.886Z,9.681771
2023-02-12T03:36:31.896Z,9.681637
2023-02-12T03:37:31.861Z,9.680792
2023-02-12T03:38:31.863Z,9.680629
2023-02-12T03:39:31.836Z,9.680942
2023-02-12T03:40:31.849Z,9.681208
2023-02-12T03:41:31.852Z,9.681311
2023-02-12T03:42:31.849Z,9.680983
2023-02-12T03:43:31.823Z,9.680909
2023-02-12T03:44:31.824Z,9.681105
2023-02-12T03:45:31.837Z,9.680845
2023-02-12T03:46:31.819Z,9.681167
2023-02-12T03:47:31.815Z,9.680620
2023-02-12T03:48:31.787Z,9.680171
2023-02-12T03:49:31.787Z,9.680437
2023-02-12T03:50:31.782Z,9.680270
2023-02-12T03:51:31.775Z,9.680387
2023-02-12T03:52:31.781Z,9.680412
2023-02-12T03:53:31.768Z,9.680468
2023-02-12T03:54:31.768Z,9.680632
2023-02-12T03:55:31.747Z,9.680694
2023-02-12T03:56:31.747Z,9.680743
2023-02-12T03:57:31.734Z,9.680594
2023-02-12T03:58:31.753Z,9.680736
2023-02-12T03:59:31.721Z,9.680655
2023-02-12T04:00:31.721Z,9.680666
2023-02-12T04:01:31.848Z,9.680504
2023-02-12T04:02:31.736Z,9.680479
2023-02-12T04:03:31.691Z,9.680556
2023-02-12T04:04:31.773Z,9.680366
2023-02-12T04:05:31.679Z,9.680326
2023-02-12T04:06:31.682Z,9.680382
2023-02-12T04:07:31.678Z,9.680391
2023-02-12T04:08:31.690Z,9.680403
2023-02-12T04:09:31.686Z,9.680531
2023-02-12T04:10:31.664Z,9.680785
2023-02-12T04:11:31.653Z,9.680297
2023-02-12T04:12:31.660Z,9.680813
2023-02-12T04:13:31.644Z,9.680632
2023-02-12T04:14:31.665Z,9.680344
2023-02-12T04:15:31.632Z,9.680332
2023-02-12T04:16:31.678Z,9.679817
2023-02-12T04:17:31.630Z,9.679978
2023-02-12T04:18:31.636Z,9.679819
2023-02-12T04:19:31.638Z,9.679819
2023-02-12T04:20:31.633Z,9.681417
2023-02-12T04:21:31.637Z,9.681171
2023-02-12T04:22:31.598Z,9.680981
2023-02-12T04:23:31.615Z,9.681029
2023-02-12T04:24:31.588Z,9.681605
2023-02-12T04:25:31.573Z,9.681324
2023-02-12T04:26:31.571Z,9.681324
2023-02-12T04:27:31.584Z,9.680815
2023-02-12T04:28:31.656Z,9.680704
2023-02-12T04:29:31.577Z,9.680132
2023-02-12T04:30:31.669Z,9.680506
2023-02-12T04:31:31.607Z,9.680294
2023-02-12T04:32:31.548Z,9.680294
2023-02-12T04:33:31.567Z,9.680399
2023-02-12T04:34:31.528Z,9.680445
2023-02-12T04:35:31.530Z,9.681065
2023-02-12T04:36:31.528Z,9.681393
2023-02-12T04:37:31.504Z,9.681044
2023-02-12T04:38:31.521Z,9.681146
2023-02-12T04:39:31.521Z,9.681771
2023-02-12T04:40:31.499Z,9.681211
2023-02-12T04:41:31.635Z,9.681249
2023-02-12T04:42:31.487Z,9.681282
2023-02-12T04:43:31.477Z,9.681726
2023-02-12T04:44:31.485Z,9.681383
2023-02-12T04:45:31.497Z,9.680527
2023-02-12T04:46:31.546Z,9.681138
2023-02-12T04:47:31.460Z,9.681041
2023-02-12T04:48:31.458Z,9.681300
2023-02-12T04:49:31.453Z,9.681354
2023-02-12T04:50:31.463Z,9.681150
2023-02-12T04:51:31.444Z,9.681177
2023-02-12T04:52:31.444Z,9.681280
2023-02-12T04:53:31.443Z,9.681208
2023-02-12T04:54:31.445Z,9.681356
2023-02-12T04:55:31.420Z,9.681070
2023-02-12T04:56:31.417Z,9.681214
2023-02-12T04:57:31.411Z,9.681062
2023-02-12T04:58:31.425Z,9.680958
2023-02-12T04:59:31.413Z,9.681041
2023-02-12T05:00:31.399Z,9.680925
2023-02-12T05:01:31.620Z,9.681235
2023-02-12T05:02:31.398Z,9.681967
2023-02-12T05:03:31.376Z,9.681620
2023-02-12T05:04:31.380Z,9.680936
2023-02-12T05:05:31.397Z,9.680865
2023-02-12T05:06:31.362Z,9.680283
2023-02-12T05:07:31.352Z,9.680902
2023-02-12T05:08:31.356Z,9.680893
2023-02-12T05:09:31.338Z,9.681190
2023-02-12T05:10:31.343Z,9.681017
2023-02-12T05:11:31.352Z,9.681199
2023-02-12T05:12:31.324Z,9.680960
2023-02-12T05:13:31.321Z,9.680744
2023-02-12T05:14:31.316Z,9.680441
2023-02-12T05:15:31.369Z,9.680851
2023-02-12T05:16:31.329Z,9.680696
2023-02-12T05:17:31.304Z,9.680964
2023-02-12T05:18:31.294Z,9.680948
2023-02-12T05:19:31.299Z,9.680572
2023-02-12T05:20:31.278Z,9.680630
2023-02-12T05:21:31.284Z,9.680744
2023-02-12T05:22:31.292Z,9.680869
2023-02-12T05:23:31.260Z,9.681047
2023-02-12T05:24:31.294Z,9.680874
2023-02-12T05:25:31.256Z,9.680983
2023-02-12T05:26:31.283Z,9.681236
2023-02-12T05:27:31.244Z,9.681237
2023-02-12T05:28:31.307Z,9.680757
2023-02-12T05:29:31.236Z,9.680676
2023-02-12T05:30:31.251Z,9.680885
2023-02-12T05:31:31.332Z,9.680588
2023-02-12T05:32:31.218Z,9.680634
2023-02-12T05:33:31.218Z,9.680545
2023-02-12T05:34:31.209Z,9.680060
2023-02-12T05:35:31.236Z,9.680072
2023-02-12T05:36:31.229Z,9.680639
2023-02-12T05:37:31.193Z,9.681036
2023-02-12T05:38:31.177Z,9.681165
2023-02-12T05:39:31.175Z,9.681149
2023-02-12T05:40:31.168Z,9.681962
2023-02-12T05:41:31.166Z,9.682154
2023-02-12T05:42:31.193Z,9.682040
2023-02-12T05:43:31.148Z,9.681821
2023-02-12T05:44:31.145Z,9.681749
2023-02-12T05:45:31.137Z,9.681997
2023-02-12T05:46:31.198Z,9.681746
2023-02-12T05:47:31.154Z,9.681439
2023-02-12T05:48:31.127Z,9.681166
2023-02-12T05:49:31.117Z,9.681419
2023-02-12T05:50:31.110Z,9.681432
2023-02-12T05:51:31.099Z,9.681317
2023-02-12T05:52:31.126Z,9.681140
2023-02-12T05:53:31.097Z,9.681267
2023-02-12T05:54:31.120Z,9.681412
2023-02-12T05:55:31.080Z,9.681940
2023-02-12T05:56:31.096Z,9.681645
2023-02-12T05:57:31.059Z,9.681406
2023-02-12T05:58:31.110Z,9.681478
2023-02-12T05:59:31.052Z,9.681635
2023-02-12T06:00:31.091Z,9.681786
2023-02-12T06:01:31.050Z,9.681968
2023-02-12T06:02:31.083Z,9.681742
2023-02-12T06:03:31.055Z,9.681097
2023-02-12T06:04:31.060Z,9.681054
2023-02-12T06:05:31.022Z,9.680699
2023-02-12T06:06:31.024Z,9.680966
2023-02-12T06:07:31.030Z,9.681599
2023-02-12T06:08:31.017Z,9.681112
2023-02-12T06:09:30.998Z,9.680742
2023-02-12T06:10:31.016Z,9.680672
2023-02-12T06:11:30.991Z,9.680861
2023-02-12T06:12:31.004Z,9.681001
2023-02-12T06:13:30.997Z,9.681051
2023-02-12T06:14:32.097Z,9.681129
2023-02-12T06:15:30.967Z,9.680845
2023-02-12T06:16:31.025Z,9.680389
2023-02-12T06:17:30.994Z,9.681060
2023-02-12T06:18:30.950Z,9.681274
2023-02-12T06:19:30.936Z,9.680818
2023-02-12T06:20:30.946Z,9.681178
2023-02-12T06:21:30.929Z,9.681253
2023-02-12T06:22:30.924Z,9.681996
2023-02-12T06:23:30.938Z,9.681937
2023-02-12T06:24:30.920Z,9.681197
2023-02-12T06:25:30.926Z,9.681255
2023-02-12T06:26:30.919Z,9.681522
2023-02-12T06:27:30.909Z,9.681515
2023-02-12T06:28:30.969Z,9.681424
2023-02-12T06:29:30.923Z,9.681288
2023-02-12T06:30:30.881Z,9.681298
2023-02-12T06:31:31.066Z,9.681339
2023-02-12T06:32:30.932Z,9.681309
2023-02-12T06:33:30.938Z,9.681632
2023-02-12T06:34:30.880Z,9.681723
2023-02-12T06:35:30.874Z,9.681328
2023-02-12T06:36:30.856Z,9.680893
2023-02-12T06:37:30.936Z,9.680990
2023-02-12T06:38:30.873Z,9.681913
2023-02-12T06:39:30.849Z,9.681771
2023-02-12T06:40:30.840Z,9.682161
2023-02-12T06:41:30.859Z,9.681308
2023-02-12T06:42:32.983Z,9.681271
2023-02-12T06:43:30.855Z,9.681321
2023-02-12T06:44:30.816Z,9.680870
2023-02-12T06:45:30.827Z,9.680882
2023-02-12T06:46:30.864Z,9.680973
2023-02-12T06:47:30.845Z,9.680895
2023-02-12T06:48:30.810Z,9.681433
2023-02-12T06:49:30.798Z,9.681690
2023-02-12T06:50:30.792Z,9.681406
2023-02-12T06:51:30.777Z,9.682081
2023-02-12T06:52:30.802Z,9.681814
2023-02-12T06:53:30.778Z,9.681242
2023-02-12T06:54:30.783Z,9.680683
2023-02-12T06:55:30.782Z,9.680923
2023-02-12T06:56:30.771Z,9.681374
2023-02-12T06:57:30.757Z,9.681215
2023-02-12T06:58:30.763Z,9.681850
2023-02-12T06:59:30.749Z,9.682220
2023-02-12T07:00:30.891Z,9.681782
2023-02-12T07:01:30.763Z,9.681283
2023-02-12T07:02:30.734Z,9.681016
2023-02-12T07:03:30.723Z,9.681000
2023-02-12T07:04:30.723Z,9.681000
2023-02-12T07:05:30.714Z,9.681000
2023-02-12T07:06:30.722Z,9.681000
2023-02-12T07:07:30.720Z,9.681000
2023-02-12T07:08:30.709Z,9.681000
2023-02-12T07:09:30.688Z,9.681000
2023-02-12T07:10:30.723Z,9.681000
2023-02-12T07:11:30.689Z,9.681000
2023-02-12T07:12:30.721Z,9.681000
2023-02-12T07:13:30.687Z,9.681000
2023-02-12T07:14:30.693Z,9.681000
2023-02-12T07:15:30.685Z,9.681000
2023-02-12T07:16:30.704Z,9.681000
2023-02-12T07:17:30.638Z,9.681000
2023-02-12T07:18:30.703Z,9.681000
2023-02-12T07:19:30.625Z,9.681000
2023-02-12T07:20:30.717Z,9.681000
2023-02-12T07:21:30.630Z,9.681000
2023-02-12T07:22:30.618Z,9.681000
2023-02-12T07:23:30.610Z,9.681000
2023-02-12T07:24:30.625Z,9.681000
2023-02-12T07:25:30.615Z,9.682569
2023-02-12T07:26:30.617Z,9.682569
2023-02-12T07:27:30.596Z,9.683308
2023-02-12T07:28:30.614Z,9.683308
2023-02-12T07:29:30.574Z,9.683308
2023-02-12T07:30:30.833Z,9.683308
2023-02-12T07:31:30.673Z,9.683308
2023-02-12T07:32:30.570Z,9.683308
2023-02-12T07:33:30.551Z,9.683308
2023-02-12T07:34:30.542Z,9.683308
2023-02-12T07:35:30.536Z,9.683308
2023-02-12T07:36:30.553Z,9.682013
2023-02-12T07:37:30.529Z,9.681756
2023-02-12T07:38:30.523Z,9.681756
2023-02-12T07:39:30.524Z,9.681756
2023-02-12T07:40:30.522Z,9.681756
2023-02-12T07:41:30.536Z,9.681756
2023-02-12T07:42:30.511Z,9.681756
2023-02-12T07:43:30.497Z,9.681665
2023-02-12T07:44:30.494Z,9.681665
2023-02-12T07:45:30.497Z,9.681593
2023-02-12T07:46:30.524Z,9.681944
2023-02-12T07:47:30.474Z,9.680871
2023-02-12T07:48:30.482Z,9.680722
2023-02-12T07:49:30.473Z,9.680644
2023-02-12T07:50:30.477Z,9.680644
2023-02-12T07:51:30.475Z,9.680644
2023-02-12T07:52:30.470Z,9.680644
2023-02-12T07:53:30.435Z,9.680927
2023-02-12T07:54:30.450Z,9.680955
2023-02-12T07:55:30.430Z,9.680955
2023-02-12T07:56:30.439Z,9.681136
2023-02-12T07:57:30.414Z,9.681136
2023-02-12T07:58:30.428Z,9.681136
2023-02-12T07:59:30.410Z,9.680530
2023-02-12T08:00:30.397Z,9.680675
2023-02-12T08:01:30.412Z,9.681218
2023-02-12T08:02:30.415Z,9.680941
2023-02-12T08:03:30.373Z,9.681026
2023-02-12T08:04:30.535Z,9.681255
2023-02-12T08:05:30.392Z,9.680981
2023-02-12T08:06:30.362Z,9.681218
2023-02-12T08:07:30.369Z,9.681028
2023-02-12T08:08:30.359Z,9.681028
2023-02-12T08:09:30.389Z,9.681028
2023-02-12T08:10:32.395Z,9.681028
2023-02-12T08:11:30.351Z,9.681028
2023-02-12T08:12:30.385Z,9.681028
2023-02-12T08:13:30.353Z,9.681028
2023-02-12T08:14:30.361Z,9.681028
2023-02-12T08:15:30.320Z,9.681028
2023-02-12T08:16:30.358Z,9.681028
2023-02-12T08:17:30.320Z,9.680898
2023-02-12T08:18:30.313Z,9.681769
2023-02-12T08:19:30.299Z,9.681141
2023-02-12T08:20:30.324Z,9.681046
2023-02-12T08:21:30.293Z,9.682201
2023-02-12T08:22:30.291Z,9.681219
2023-02-12T08:23:30.281Z,9.681616
2023-02-12T08:24:30.301Z,9.681160
2023-02-12T08:25:30.271Z,9.681225
2023-02-12T08:26:30.286Z,9.681229
2023-02-12T08:27:30.300Z,9.681388
2023-02-12T08:28:30.276Z,9.681231
2023-02-12T08:29:30.271Z,9.681115
2023-02-12T08:30:30.246Z,9.680671
2023-02-12T08:31:30.262Z,9.680671
2023-02-12T08:32:30.293Z,9.680671
2023-02-12T08:33:30.242Z,9.680671
2023-02-12T08:34:30.225Z,9.680671
2023-02-12T08:35:30.229Z,9.680671
2023-02-12T08:36:30.208Z,9.680671
2023-02-12T08:37:30.202Z,9.680671
2023-02-12T08:38:30.211Z,9.681313
2023-02-12T08:39:30.190Z,9.681142
2023-02-12T08:40:30.226Z,9.680927
2023-02-12T08:41:30.211Z,9.680752
2023-02-12T08:42:30.181Z,9.680727
2023-02-12T08:43:30.194Z,9.680865
2023-02-12T08:44:30.182Z,9.681226
2023-02-12T08:45:30.171Z,9.681025
2023-02-12T08:46:30.210Z,9.681244
2023-02-12T08:47:31.403Z,9.680914
2023-02-12T08:48:30.156Z,9.680906
2023-02-12T08:49:30.152Z,9.681059
2023-02-12T08:50:30.169Z,9.681726
2023-02-12T08:51:30.123Z,9.681141
2023-02-12T08:52:30.200Z,9.680261
2023-02-12T08:53:30.157Z,9.680343
2023-02-12T08:54:30.138Z,9.680608
2023-02-12T08:55:30.121Z,9.680619
2023-02-12T08:56:30.132Z,9.680860
2023-02-12T08:57:30.137Z,9.680851
2023-02-12T08:58:30.115Z,9.680713
2023-02-12T08:59:30.113Z,9.681077
2023-02-12T09:00:30.128Z,9.681100
2023-02-12T09:01:30.136Z,9.680806
2023-02-12T09:02:30.087Z,9.681186
2023-02-12T09:03:30.059Z,9.680925
2023-02-12T09:04:30.090Z,9.681133
2023-02-12T09:05:30.044Z,9.680956
2023-02-12T09:06:30.067Z,9.681281
2023-02-12T09:07:30.051Z,9.681202
2023-02-12T09:08:30.060Z,9.681468
2023-02-12T09:09:30.065Z,9.681127
2023-02-12T09:10:30.024Z,9.680923
2023-02-12T09:11:30.033Z,9.681158
2023-02-12T09:12:30.034Z,9.681110
2023-02-12T09:13:30.025Z,9.681026
2023-02-12T09:14:30.001Z,9.680860
2023-02-12T09:15:29.998Z,9.681012
2023-02-12T09:16:30.064Z,9.681168
2023-02-12T09:17:29.995Z,9.681062
2023-02-12T09:18:29.984Z,9.681527
2023-02-12T09:19:29.978Z,9.681517
2023-02-12T09:20:29.966Z,9.680883
2023-02-12T09:21:29.969Z,9.680753
2023-02-12T09:22:29.952Z,9.680910
2023-02-12T09:23:29.963Z,9.680772
2023-02-12T09:24:29.941Z,9.680847
2023-02-12T09:25:29.943Z,9.681248
2023-02-12T09:26:29.959Z,9.680862
2023-02-12T09:27:31.354Z,9.681060
2023-02-12T09:28:29.986Z,9.680674
2023-02-12T09:29:29.951Z,9.680869
2023-02-12T09:30:29.929Z,9.680859
2023-02-12T09:31:30.045Z,9.680632
2023-02-12T09:32:29.897Z,9.680553
2023-02-12T09:33:29.923Z,9.680344
2023-02-12T09:34:29.897Z,9.680945
2023-02-12T09:35:29.906Z,9.680964
2023-02-12T09:36:29.901Z,9.681454
2023-02-12T09:37:29.877Z,9.680915
2023-02-12T09:38:29.922Z,9.680785
2023-02-12T09:39:29.932Z,9.680965
2023-02-12T09:40:29.872Z,9.681355
2023-02-12T09:41:29.876Z,9.681430
2023-02-12T09:42:29.888Z,9.681861
2023-02-12T09:43:29.844Z,9.681248
2023-02-12T09:44:29.911Z,9.681705
2023-02-12T09:45:29.880Z,9.681047
2023-02-12T09:46:29.881Z,9.681252
2023-02-12T09:47:29.818Z,9.681143
2023-02-12T09:48:29.830Z,9.680861
2023-02-12T09:49:29.823Z,9.680933
2023-02-12T09:50:29.823Z,9.681301
2023-02-12T09:51:29.836Z,9.681001
2023-02-12T09:52:29.806Z,9.681120
2023-02-12T09:53:29.786Z,9.681165
2023-02-12T09:54:29.805Z,9.681067
2023-02-12T09:55:29.785Z,9.680749
2023-02-12T09:56:29.793Z,9.681136
2023-02-12T09:57:29.786Z,9.680978
2023-02-12T09:58:29.796Z,9.681065
2023-02-12T09:59:29.779Z,9.680839
2023-02-12T10:00:29.794Z,9.680891
2023-02-12T10:01:29.857Z,9.680488
2023-02-12T10:02:29.747Z,9.680836
2023-02-12T10:03:29.755Z,9.681171
2023-02-12T10:04:29.785Z,9.681147
2023-02-12T10:05:29.758Z,9.681747
2023-02-12T10:06:29.763Z,9.681525
2023-02-12T10:07:29.728Z,9.681446
2023-02-12T10:08:29.761Z,9.681174
2023-02-12T10:09:29.720Z,9.681059
2023-02-12T10:10:29.710Z,9.681230
2023-02-12T10:11:29.750Z,9.680879
2023-02-12T10:12:29.710Z,9.681107
2023-02-12T10:13:29.692Z,9.681016
2023-02-12T10:14:29.705Z,9.681235
2023-02-12T10:15:29.713Z,9.681324
2023-02-12T10:16:29.675Z,9.681478
2023-02-12T10:17:29.692Z,9.680944
2023-02-12T10:18:29.688Z,9.681064
2023-02-12T10:19:29.670Z,9.681439
2023-02-12T10:20:29.679Z,9.681596
2023-02-12T10:21:29.686Z,9.681712
2023-02-12T10:22:29.648Z,9.681011
2023-02-12T10:23:29.667Z,9.681130
2023-02-12T10:24:29.651Z,9.681163
2023-02-12T10:25:29.646Z,9.681379
2023-02-12T10:26:29.659Z,9.681020
2023-02-12T10:27:29.626Z,9.681311
2023-02-12T10:28:29.799Z,9.681276
2023-02-12T10:29:29.611Z,9.681062
2023-02-12T10:30:29.608Z,9.681087
2023-02-12T10:31:30.578Z,9.681016
2023-02-12T10:32:29.588Z,9.681038
2023-02-12T10:33:29.585Z,9.681120
2023-02-12T10:34:29.585Z,9.681328
2023-02-12T10:35:29.572Z,9.681028
2023-02-12T10:36:29.557Z,9.681499
2023-02-12T10:37:29.571Z,9.681501
2023-02-12T10:38:29.570Z,9.680589
2023-02-12T10:39:29.536Z,9.681233
2023-02-12T10:40:29.557Z,9.681063
2023-02-12T10:41:29.520Z,9.681618
2023-02-12T10:42:29.525Z,9.680988
2023-02-12T10:43:29.522Z,9.681231
2023-02-12T10:44:29.544Z,9.681170
2023-02-12T10:45:29.500Z,9.681135
2023-02-12T10:46:29.613Z,9.680961
2023-02-12T10:47:29.487Z,9.680996
2023-02-12T10:48:29.490Z,9.680875
2023-02-12T10:49:29.499Z,9.681147
2023-02-12T10:50:29.516Z,9.681142
2023-02-12T10:51:29.490Z,9.682085
2023-02-12T10:52:29.484Z,9.681149
2023-02-12T10:53:29.460Z,9.681816
2023-02-12T10:54:29.461Z,9.681685
2023-02-12T10:55:29.474Z,9.680882
2023-02-12T10:56:29.448Z,9.679845
2023-02-12T10:57:29.475Z,9.680520
2023-02-12T10:58:29.449Z,9.680878
2023-02-12T10:59:29.462Z,9.681073
2023-02-12T11:00:29.433Z,9.681112
2023-02-12T11:01:29.477Z,9.681058
2023-02-12T11:02:29.438Z,9.680616
2023-02-12T11:03:29.432Z,9.680771
2023-02-12T11:04:29.399Z,9.680695
2023-02-12T11:05:29.401Z,9.680922
2023-02-12T11:06:29.384Z,9.680787
2023-02-12T11:07:29.425Z,9.680727
2023-02-12T11:08:29.390Z,9.681006
2023-02-12T11:09:29.381Z,9.680726
2023-02-12T11:10:29.407Z,9.680891
2023-02-12T11:11:29.388Z,9.680825
2023-02-12T11:12:29.375Z,9.680894
2023-02-12T11:13:29.374Z,9.681116
2023-02-12T11:14:29.357Z,9.681079
2023-02-12T11:15:29.341Z,9.681182
2023-02-12T11:16:29.452Z,9.680927
2023-02-12T11:17:29.336Z,9.680766
2023-02-12T11:18:29.326Z,9.680668
2023-02-12T11:19:29.348Z,9.680913
2023-02-12T11:20:29.302Z,9.680984
2023-02-12T11:21:29.312Z,9.680974
2023-02-12T11:22:29.291Z,9.680970
2023-02-12T11:23:29.293Z,9.680986
2023-02-12T11:24:29.301Z,9.680890
2023-02-12T11:25:29.292Z,9.680783
2023-02-12T11:26:29.311Z,9.681106
2023-02-12T11:27:29.277Z,9.680879
2023-02-12T11:28:29.315Z,9.681261
2023-02-12T11:29:29.258Z,9.681175
2023-02-12T11:30:29.251Z,9.680996
2023-02-12T11:31:29.345Z,9.680863
2023-02-12T11:32:29.228Z,9.681207
2023-02-12T11:33:29.231Z,9.681064
2023-02-12T11:34:29.239Z,9.681115
2023-02-12T11:35:29.245Z,9.680858
2023-02-12T11:36:29.225Z,9.680684
2023-02-12T11:37:29.205Z,9.680907
2023-02-12T11:38:29.197Z,9.680977
2023-02-12T11:39:29.205Z,9.680812
2023-02-12T11:40:29.184Z,9.680653
2023-02-12T11:41:29.190Z,9.680419
2023-02-12T11:42:29.194Z,9.680531
2023-02-12T11:43:29.183Z,9.680505
2023-02-12T11:44:29.183Z,9.680286